sensor_id;sensor_type;location;lat;lon;timestamp;P1;durP1;ratioP1;P2;durP2;ratioP2
8708;SDS011;4391;48.678;9.280;2024-03-08T00:01:36;32.00;;;12.97;;
8708;SDS011;4391;48.678;9.280;2024-03-08T00:04:03;33.95;;;13.35;;
8708;SDS011;4391;48.678;9.280;2024-03-08T00:06:32;31.23;;;13.30;;
8708;SDS011;4391;48.678;9.280;2024-03-08T00:08:59;33.75;;;12.85;;
8708;SDS011;4391;48.678;9.280;2024-03-08T00:11:26;28.92;;;12.27;;
8708;SDS011;4391;48.678;9.280;2024-03-08T00:13:53;30.73;;;12.77;;
8708;SDS011;4391;48.678;9.280;2024-03-08T00:16:20;32.42;;;12.15;;
8708;SDS011;4391;48.678;9.280;2024-03-08T00:18:48;31.95;;;12.63;;
8708;SDS011;4391;48.678;9.280;2024-03-08T00:21:15;31.67;;;12.57;;
8708;SDS011;4391;48.678;9.280;2024-03-08T00:23:43;33.22;;;12.63;;
8708;SDS011;4391;48.678;9.280;2024-03-08T00:26:10;32.50;;;12.53;;
8708;SDS011;4391;48.678;9.280;2024-03-08T00:28:37;28.48;;;12.15;;
8708;SDS011;4391;48.678;9.280;2024-03-08T00:31:04;30.92;;;12.35;;
8708;SDS011;4391;48.678;9.280;2024-03-08T00:33:32;26.77;;;11.27;;
8708;SDS011;4391;48.678;9.280;2024-03-08T00:35:59;30.10;;;13.05;;
8708;SDS011;4391;48.678;9.280;2024-03-08T00:38:25;26.47;;;11.60;;
8708;SDS011;4391;48.678;9.280;2024-03-08T00:40:54;32.45;;;12.07;;
8708;SDS011;4391;48.678;9.280;2024-03-08T00:43:21;32.13;;;12.48;;
8708;SDS011;4391;48.678;9.280;2024-03-08T00:45:48;27.83;;;12.43;;
8708;SDS011;4391;48.678;9.280;2024-03-08T00:48:15;29.65;;;11.73;;
8708;SDS011;4391;48.678;9.280;2024-03-08T00:50:42;29.00;;;12.20;;
8708;SDS011;4391;48.678;9.280;2024-03-08T00:53:10;32.17;;;12.38;;
8708;SDS011;4391;48.678;9.280;2024-03-08T00:55:37;30.10;;;12.60;;
8708;SDS011;4391;48.678;9.280;2024-03-08T00:58:05;27.52;;;12.00;;
8708;SDS011;4391;48.678;9.280;2024-03-08T01:00:34;27.58;;;12.05;;
8708;SDS011;4391;48.678;9.280;2024-03-08T01:03:01;28.97;;;12.00;;
8708;SDS011;4391;48.678;9.280;2024-03-08T01:05:28;30.00;;;12.20;;
8708;SDS011;4391;48.678;9.280;2024-03-08T01:07:55;31.40;;;12.57;;
8708;SDS011;4391;48.678;9.280;2024-03-08T01:10:22;29.33;;;12.80;;
8708;SDS011;4391;48.678;9.280;2024-03-08T01:12:49;27.60;;;12.38;;
8708;SDS011;4391;48.678;9.280;2024-03-08T01:15:17;29.17;;;11.63;;
8708;SDS011;4391;48.678;9.280;2024-03-08T01:17:44;30.00;;;12.98;;
8708;SDS011;4391;48.678;9.280;2024-03-08T01:20:11;32.55;;;12.75;;
8708;SDS011;4391;48.678;9.280;2024-03-08T01:22:38;30.42;;;12.05;;
8708;SDS011;4391;48.678;9.280;2024-03-08T01:25:05;32.78;;;13.18;;
8708;SDS011;4391;48.678;9.280;2024-03-08T01:27:33;30.47;;;12.23;;
8708;SDS011;4391;48.678;9.280;2024-03-08T01:30:02;33.35;;;12.63;;
8708;SDS011;4391;48.678;9.280;2024-03-08T01:32:30;28.77;;;12.90;;
8708;SDS011;4391;48.678;9.280;2024-03-08T01:34:58;28.42;;;11.82;;
8708;SDS011;4391;48.678;9.280;2024-03-08T01:37:25;28.55;;;12.80;;
8708;SDS011;4391;48.678;9.280;2024-03-08T01:39:52;27.33;;;11.47;;
8708;SDS011;4391;48.678;9.280;2024-03-08T01:42:19;31.55;;;12.02;;
8708;SDS011;4391;48.678;9.280;2024-03-08T01:44:47;30.75;;;12.48;;
8708;SDS011;4391;48.678;9.280;2024-03-08T01:47:14;28.23;;;11.73;;
8708;SDS011;4391;48.678;9.280;2024-03-08T01:49:43;30.70;;;11.93;;
8708;SDS011;4391;48.678;9.280;2024-03-08T01:52:10;27.27;;;11.00;;
8708;SDS011;4391;48.678;9.280;2024-03-08T01:54:37;31.83;;;12.35;;
8708;SDS011;4391;48.678;9.280;2024-03-08T01:57:06;26.90;;;11.57;;
8708;SDS011;4391;48.678;9.280;2024-03-08T01:59:33;29.85;;;12.45;;
8708;SDS011;4391;48.678;9.280;2024-03-08T02:02:00;26.83;;;11.25;;
8708;SDS011;4391;48.678;9.280;2024-03-08T02:04:28;31.03;;;11.77;;
8708;SDS011;4391;48.678;9.280;2024-03-08T02:06:57;26.10;;;10.73;;
8708;SDS011;4391;48.678;9.280;2024-03-08T02:09:24;26.77;;;11.35;;
8708;SDS011;4391;48.678;9.280;2024-03-08T02:11:51;31.27;;;10.63;;
8708;SDS011;4391;48.678;9.280;2024-03-08T02:14:19;30.88;;;11.40;;
8708;SDS011;4391;48.678;9.280;2024-03-08T02:16:46;25.03;;;10.80;;
8708;SDS011;4391;48.678;9.280;2024-03-08T02:19:13;27.85;;;11.40;;
8708;SDS011;4391;48.678;9.280;2024-03-08T02:21:41;32.35;;;11.52;;
8708;SDS011;4391;48.678;9.280;2024-03-08T02:24:08;29.05;;;11.15;;
8708;SDS011;4391;48.678;9.280;2024-03-08T02:26:35;26.38;;;10.45;;
8708;SDS011;4391;48.678;9.280;2024-03-08T02:29:02;26.97;;;10.70;;
8708;SDS011;4391;48.678;9.280;2024-03-08T02:31:30;24.63;;;10.43;;
8708;SDS011;4391;48.678;9.280;2024-03-08T02:33:57;24.60;;;9.75;;
8708;SDS011;4391;48.678;9.280;2024-03-08T02:36:24;27.65;;;11.05;;
8708;SDS011;4391;48.678;9.280;2024-03-08T02:38:52;22.77;;;9.85;;
8708;SDS011;4391;48.678;9.280;2024-03-08T02:41:20;25.13;;;10.37;;
8708;SDS011;4391;48.678;9.280;2024-03-08T02:43:47;22.35;;;9.93;;
8708;SDS011;4391;48.678;9.280;2024-03-08T02:46:15;25.45;;;11.25;;
8708;SDS011;4391;48.678;9.280;2024-03-08T02:48:42;26.15;;;10.25;;
8708;SDS011;4391;48.678;9.280;2024-03-08T02:51:09;25.98;;;10.00;;
8708;SDS011;4391;48.678;9.280;2024-03-08T02:53:36;21.77;;;9.80;;
8708;SDS011;4391;48.678;9.280;2024-03-08T02:56:05;23.85;;;10.80;;
8708;SDS011;4391;48.678;9.280;2024-03-08T02:58:33;22.92;;;9.57;;
8708;SDS011;4391;48.678;9.280;2024-03-08T03:01:00;28.33;;;10.43;;
8708;SDS011;4391;48.678;9.280;2024-03-08T03:03:27;29.35;;;10.38;;
8708;SDS011;4391;48.678;9.280;2024-03-08T03:05:54;27.20;;;9.07;;
8708;SDS011;4391;48.678;9.280;2024-03-08T03:08:21;24.23;;;9.65;;
8708;SDS011;4391;48.678;9.280;2024-03-08T03:10:48;25.40;;;9.75;;
8708;SDS011;4391;48.678;9.280;2024-03-08T03:13:17;24.83;;;10.45;;
8708;SDS011;4391;48.678;9.280;2024-03-08T03:15:45;23.42;;;10.25;;
8708;SDS011;4391;48.678;9.280;2024-03-08T03:18:12;23.37;;;9.43;;
8708;SDS011;4391;48.678;9.280;2024-03-08T03:20:40;27.90;;;10.18;;
8708;SDS011;4391;48.678;9.280;2024-03-08T03:23:07;25.67;;;10.98;;
8708;SDS011;4391;48.678;9.280;2024-03-08T03:25:38;24.63;;;10.25;;
8708;SDS011;4391;48.678;9.280;2024-03-08T03:28:06;23.23;;;10.32;;
8708;SDS011;4391;48.678;9.280;2024-03-08T03:30:37;23.33;;;10.03;;
8708;SDS011;4391;48.678;9.280;2024-03-08T03:33:04;24.92;;;8.88;;
8708;SDS011;4391;48.678;9.280;2024-03-08T03:35:32;22.35;;;9.45;;
8708;SDS011;4391;48.678;9.280;2024-03-08T03:37:59;24.90;;;9.77;;
8708;SDS011;4391;48.678;9.280;2024-03-08T03:40:31;25.48;;;10.90;;
8708;SDS011;4391;48.678;9.280;2024-03-08T03:42:58;30.83;;;9.80;;
8708;SDS011;4391;48.678;9.280;2024-03-08T03:45:25;22.98;;;9.60;;
8708;SDS011;4391;48.678;9.280;2024-03-08T03:47:54;25.30;;;9.68;;
8708;SDS011;4391;48.678;9.280;2024-03-08T03:50:21;25.65;;;10.38;;
8708;SDS011;4391;48.678;9.280;2024-03-08T03:52:48;28.58;;;9.70;;
8708;SDS011;4391;48.678;9.280;2024-03-08T03:55:15;25.80;;;9.73;;
8708;SDS011;4391;48.678;9.280;2024-03-08T03:57:43;26.15;;;10.32;;
8708;SDS011;4391;48.678;9.280;2024-03-08T04:00:11;29.25;;;10.93;;
8708;SDS011;4391;48.678;9.280;2024-03-08T04:02:38;30.17;;;11.02;;
8708;SDS011;4391;48.678;9.280;2024-03-08T04:05:08;25.67;;;10.80;;
8708;SDS011;4391;48.678;9.280;2024-03-08T04:07:35;24.73;;;10.30;;
8708;SDS011;4391;48.678;9.280;2024-03-08T04:10:03;26.05;;;10.30;;
8708;SDS011;4391;48.678;9.280;2024-03-08T04:12:31;22.77;;;9.63;;
8708;SDS011;4391;48.678;9.280;2024-03-08T04:14:58;23.88;;;10.10;;
8708;SDS011;4391;48.678;9.280;2024-03-08T04:17:25;24.20;;;9.43;;
8708;SDS011;4391;48.678;9.280;2024-03-08T04:19:52;28.23;;;10.60;;
8708;SDS011;4391;48.678;9.280;2024-03-08T04:22:20;24.70;;;10.30;;
8708;SDS011;4391;48.678;9.280;2024-03-08T04:24:47;21.52;;;8.77;;
8708;SDS011;4391;48.678;9.280;2024-03-08T04:27:14;24.73;;;10.02;;
8708;SDS011;4391;48.678;9.280;2024-03-08T04:29:41;22.02;;;8.43;;
8708;SDS011;4391;48.678;9.280;2024-03-08T04:32:08;22.97;;;8.60;;
8708;SDS011;4391;48.678;9.280;2024-03-08T04:34:36;23.23;;;8.55;;
8708;SDS011;4391;48.678;9.280;2024-03-08T04:37:03;23.30;;;8.88;;
8708;SDS011;4391;48.678;9.280;2024-03-08T04:39:31;24.02;;;9.38;;
8708;SDS011;4391;48.678;9.280;2024-03-08T04:41:59;30.75;;;10.60;;
8708;SDS011;4391;48.678;9.280;2024-03-08T04:44:29;24.13;;;9.77;;
8708;SDS011;4391;48.678;9.280;2024-03-08T04:46:56;22.75;;;8.95;;
8708;SDS011;4391;48.678;9.280;2024-03-08T04:49:23;23.95;;;9.15;;
8708;SDS011;4391;48.678;9.280;2024-03-08T04:51:50;23.88;;;9.05;;
8708;SDS011;4391;48.678;9.280;2024-03-08T04:54:17;26.13;;;9.60;;
8708;SDS011;4391;48.678;9.280;2024-03-08T04:56:45;21.83;;;8.53;;
8708;SDS011;4391;48.678;9.280;2024-03-08T04:59:12;23.17;;;8.90;;
8708;SDS011;4391;48.678;9.280;2024-03-08T05:01:39;21.48;;;9.65;;
8708;SDS011;4391;48.678;9.280;2024-03-08T05:04:05;22.48;;;8.60;;
8708;SDS011;4391;48.678;9.280;2024-03-08T05:06:32;27.17;;;9.57;;
8708;SDS011;4391;48.678;9.280;2024-03-08T05:08:59;22.27;;;9.00;;
8708;SDS011;4391;48.678;9.280;2024-03-08T05:11:28;22.73;;;8.68;;
8708;SDS011;4391;48.678;9.280;2024-03-08T05:13:56;21.92;;;10.02;;
8708;SDS011;4391;48.678;9.280;2024-03-08T05:16:23;26.45;;;9.68;;
8708;SDS011;4391;48.678;9.280;2024-03-08T05:18:50;23.40;;;9.43;;
8708;SDS011;4391;48.678;9.280;2024-03-08T05:21:17;22.57;;;9.30;;
8708;SDS011;4391;48.678;9.280;2024-03-08T05:23:45;22.67;;;9.73;;
8708;SDS011;4391;48.678;9.280;2024-03-08T05:26:13;26.42;;;10.23;;
8708;SDS011;4391;48.678;9.280;2024-03-08T05:28:40;27.20;;;9.75;;
8708;SDS011;4391;48.678;9.280;2024-03-08T05:31:08;26.42;;;10.43;;
8708;SDS011;4391;48.678;9.280;2024-03-08T05:33:35;25.00;;;9.60;;
8708;SDS011;4391;48.678;9.280;2024-03-08T05:36:02;26.13;;;9.95;;
8708;SDS011;4391;48.678;9.280;2024-03-08T05:38:29;27.13;;;10.52;;
8708;SDS011;4391;48.678;9.280;2024-03-08T05:40:55;25.75;;;10.75;;
8708;SDS011;4391;48.678;9.280;2024-03-08T05:43:22;28.10;;;11.65;;
8708;SDS011;4391;48.678;9.280;2024-03-08T05:45:49;28.20;;;10.47;;
8708;SDS011;4391;48.678;9.280;2024-03-08T05:48:18;28.58;;;10.73;;
8708;SDS011;4391;48.678;9.280;2024-03-08T05:50:45;25.20;;;10.88;;
8708;SDS011;4391;48.678;9.280;2024-03-08T05:53:12;28.98;;;10.65;;
8708;SDS011;4391;48.678;9.280;2024-03-08T05:55:39;28.02;;;11.55;;
8708;SDS011;4391;48.678;9.280;2024-03-08T05:58:06;29.53;;;11.20;;
8708;SDS011;4391;48.678;9.280;2024-03-08T06:00:34;27.85;;;11.18;;
8708;SDS011;4391;48.678;9.280;2024-03-08T06:03:01;27.35;;;11.57;;
8708;SDS011;4391;48.678;9.280;2024-03-08T06:05:30;31.70;;;11.05;;
8708;SDS011;4391;48.678;9.280;2024-03-08T06:07:57;32.08;;;12.68;;
8708;SDS011;4391;48.678;9.280;2024-03-08T06:10:24;30.17;;;11.33;;
8708;SDS011;4391;48.678;9.280;2024-03-08T06:12:50;31.13;;;11.45;;
8708;SDS011;4391;48.678;9.280;2024-03-08T06:15:17;24.25;;;10.88;;
8708;SDS011;4391;48.678;9.280;2024-03-08T06:17:46;9.55;;;4.07;;
8708;SDS011;4391;48.678;9.280;2024-03-08T06:20:13;7.50;;;4.25;;
8708;SDS011;4391;48.678;9.280;2024-03-08T06:22:41;4.33;;;3.70;;
8708;SDS011;4391;48.678;9.280;2024-03-08T06:25:09;5.30;;;2.67;;
8708;SDS011;4391;48.678;9.280;2024-03-08T06:27:38;5.50;;;3.28;;
8708;SDS011;4391;48.678;9.280;2024-03-08T06:30:07;7.13;;;2.45;;
8708;SDS011;4391;48.678;9.280;2024-03-08T06:32:35;3.85;;;2.30;;
8708;SDS011;4391;48.678;9.280;2024-03-08T06:35:02;5.57;;;3.57;;
8708;SDS011;4391;48.678;9.280;2024-03-08T06:37:31;5.28;;;2.80;;
8708;SDS011;4391;48.678;9.280;2024-03-08T06:40:02;5.65;;;2.65;;
8708;SDS011;4391;48.678;9.280;2024-03-08T06:42:29;6.30;;;2.47;;
8708;SDS011;4391;48.678;9.280;2024-03-08T06:44:58;8.30;;;3.45;;
8708;SDS011;4391;48.678;9.280;2024-03-08T06:47:29;5.30;;;2.87;;
8708;SDS011;4391;48.678;9.280;2024-03-08T06:49:59;10.77;;;4.43;;
8708;SDS011;4391;48.678;9.280;2024-03-08T06:52:26;5.82;;;3.60;;
8708;SDS011;4391;48.678;9.280;2024-03-08T06:54:53;10.95;;;4.13;;
8708;SDS011;4391;48.678;9.280;2024-03-08T06:57:21;9.73;;;4.60;;
8708;SDS011;4391;48.678;9.280;2024-03-08T06:59:48;3.97;;;2.60;;
8708;SDS011;4391;48.678;9.280;2024-03-08T07:02:17;4.25;;;2.75;;
8708;SDS011;4391;48.678;9.280;2024-03-08T07:04:44;11.77;;;4.50;;
8708;SDS011;4391;48.678;9.280;2024-03-08T07:07:11;7.10;;;4.03;;
8708;SDS011;4391;48.678;9.280;2024-03-08T07:09:37;7.05;;;4.18;;
8708;SDS011;4391;48.678;9.280;2024-03-08T07:12:05;9.13;;;4.73;;
8708;SDS011;4391;48.678;9.280;2024-03-08T07:14:34;10.77;;;5.05;;
8708;SDS011;4391;48.678;9.280;2024-03-08T07:17:05;6.80;;;3.83;;
8708;SDS011;4391;48.678;9.280;2024-03-08T07:19:34;8.93;;;4.82;;
8708;SDS011;4391;48.678;9.280;2024-03-08T07:22:01;7.97;;;4.35;;
8708;SDS011;4391;48.678;9.280;2024-03-08T07:24:28;8.37;;;4.13;;
8708;SDS011;4391;48.678;9.280;2024-03-08T07:27:05;6.03;;;3.83;;
8708;SDS011;4391;48.678;9.280;2024-03-08T07:29:32;9.60;;;4.95;;
8708;SDS011;4391;48.678;9.280;2024-03-08T07:32:00;9.35;;;4.38;;
8708;SDS011;4391;48.678;9.280;2024-03-08T07:34:43;6.30;;;4.38;;
8708;SDS011;4391;48.678;9.280;2024-03-08T07:37:10;7.40;;;3.73;;
8708;SDS011;4391;48.678;9.280;2024-03-08T07:39:37;9.25;;;4.70;;
8708;SDS011;4391;48.678;9.280;2024-03-08T07:42:05;9.77;;;5.38;;
8708;SDS011;4391;48.678;9.280;2024-03-08T07:44:31;10.10;;;4.07;;
8708;SDS011;4391;48.678;9.280;2024-03-08T07:46:58;7.85;;;4.30;;
8708;SDS011;4391;48.678;9.280;2024-03-08T07:49:27;7.23;;;4.97;;
8708;SDS011;4391;48.678;9.280;2024-03-08T07:51:54;6.13;;;3.90;;
8708;SDS011;4391;48.678;9.280;2024-03-08T07:54:21;13.00;;;5.43;;
8708;SDS011;4391;48.678;9.280;2024-03-08T07:56:47;7.50;;;4.47;;
8708;SDS011;4391;48.678;9.280;2024-03-08T07:59:16;7.13;;;3.17;;
8708;SDS011;4391;48.678;9.280;2024-03-08T08:01:42;8.33;;;4.73;;
8708;SDS011;4391;48.678;9.280;2024-03-08T08:04:11;8.40;;;4.40;;
8708;SDS011;4391;48.678;9.280;2024-03-08T08:06:41;7.25;;;4.63;;
8708;SDS011;4391;48.678;9.280;2024-03-08T08:09:07;9.90;;;3.42;;
8708;SDS011;4391;48.678;9.280;2024-03-08T08:11:39;14.10;;;4.82;;
8708;SDS011;4391;48.678;9.280;2024-03-08T08:14:08;8.47;;;4.37;;
8708;SDS011;4391;48.678;9.280;2024-03-08T08:16:35;16.70;;;4.75;;
8708;SDS011;4391;48.678;9.280;2024-03-08T08:19:02;9.18;;;4.45;;
8708;SDS011;4391;48.678;9.280;2024-03-08T08:21:33;8.00;;;3.22;;
8708;SDS011;4391;48.678;9.280;2024-03-08T08:24:02;7.43;;;4.95;;
8708;SDS011;4391;48.678;9.280;2024-03-08T08:26:29;25.40;;;10.63;;
8708;SDS011;4391;48.678;9.280;2024-03-08T08:28:56;3.85;;;2.15;;
8708;SDS011;4391;48.678;9.280;2024-03-08T08:31:22;12.82;;;2.10;;
8708;SDS011;4391;48.678;9.280;2024-03-08T08:33:49;3.95;;;2.20;;
8708;SDS011;4391;48.678;9.280;2024-03-08T08:36:21;3.00;;;1.92;;
8708;SDS011;4391;48.678;9.280;2024-03-08T08:38:50;4.37;;;2.57;;
8708;SDS011;4391;48.678;9.280;2024-03-08T08:41:19;4.05;;;2.22;;
8708;SDS011;4391;48.678;9.280;2024-03-08T08:43:46;4.65;;;2.58;;
8708;SDS011;4391;48.678;9.280;2024-03-08T08:46:16;4.93;;;2.45;;
8708;SDS011;4391;48.678;9.280;2024-03-08T08:48:43;4.78;;;2.65;;
8708;SDS011;4391;48.678;9.280;2024-03-08T08:51:11;3.50;;;2.00;;
8708;SDS011;4391;48.678;9.280;2024-03-08T08:53:38;4.53;;;2.70;;
8708;SDS011;4391;48.678;9.280;2024-03-08T08:56:09;2.53;;;1.63;;
8708;SDS011;4391;48.678;9.280;2024-03-08T08:58:38;6.45;;;2.70;;
8708;SDS011;4391;48.678;9.280;2024-03-08T09:01:05;1.45;;;0.80;;
8708;SDS011;4391;48.678;9.280;2024-03-08T09:03:32;2.73;;;1.10;;
8708;SDS011;4391;48.678;9.280;2024-03-08T09:05:59;4.03;;;1.83;;
8708;SDS011;4391;48.678;9.280;2024-03-08T09:08:27;4.53;;;2.05;;
8708;SDS011;4391;48.678;9.280;2024-03-08T09:10:55;6.20;;;3.55;;
8708;SDS011;4391;48.678;9.280;2024-03-08T09:13:23;4.55;;;2.70;;
8708;SDS011;4391;48.678;9.280;2024-03-08T09:15:49;3.03;;;2.07;;
8708;SDS011;4391;48.678;9.280;2024-03-08T09:18:17;3.25;;;1.70;;
8708;SDS011;4391;48.678;9.280;2024-03-08T09:20:46;2.33;;;1.67;;
8708;SDS011;4391;48.678;9.280;2024-03-08T09:23:13;4.60;;;2.85;;
8708;SDS011;4391;48.678;9.280;2024-03-08T09:25:41;5.75;;;2.25;;
8708;SDS011;4391;48.678;9.280;2024-03-08T09:28:08;4.00;;;1.97;;
8708;SDS011;4391;48.678;9.280;2024-03-08T09:30:38;3.08;;;1.85;;
8708;SDS011;4391;48.678;9.280;2024-03-08T09:33:05;5.80;;;2.00;;
8708;SDS011;4391;48.678;9.280;2024-03-08T09:35:32;7.53;;;3.13;;
8708;SDS011;4391;48.678;9.280;2024-03-08T09:37:59;4.10;;;1.88;;
8708;SDS011;4391;48.678;9.280;2024-03-08T09:40:26;6.60;;;3.77;;
8708;SDS011;4391;48.678;9.280;2024-03-08T09:42:53;7.45;;;2.40;;
8708;SDS011;4391;48.678;9.280;2024-03-08T09:45:20;3.00;;;1.75;;
8708;SDS011;4391;48.678;9.280;2024-03-08T09:47:50;3.25;;;2.28;;
8708;SDS011;4391;48.678;9.280;2024-03-08T09:50:18;8.20;;;1.88;;
8708;SDS011;4391;48.678;9.280;2024-03-08T09:52:46;4.53;;;2.97;;
8708;SDS011;4391;48.678;9.280;2024-03-08T09:55:14;6.82;;;2.75;;
8708;SDS011;4391;48.678;9.280;2024-03-08T09:57:47;3.65;;;1.40;;
8708;SDS011;4391;48.678;9.280;2024-03-08T10:00:40;2.63;;;1.63;;
8708;SDS011;4391;48.678;9.280;2024-03-08T10:03:08;3.20;;;1.95;;
8708;SDS011;4391;48.678;9.280;2024-03-08T10:05:35;4.83;;;2.17;;
8708;SDS011;4391;48.678;9.280;2024-03-08T10:08:04;4.53;;;2.88;;
8708;SDS011;4391;48.678;9.280;2024-03-08T10:10:33;5.63;;;2.85;;
8708;SDS011;4391;48.678;9.280;2024-03-08T10:13:00;4.60;;;1.88;;
8708;SDS011;4391;48.678;9.280;2024-03-08T10:15:27;6.13;;;2.70;;
8708;SDS011;4391;48.678;9.280;2024-03-08T10:17:55;3.80;;;1.97;;
8708;SDS011;4391;48.678;9.280;2024-03-08T10:20:24;4.10;;;1.88;;
8708;SDS011;4391;48.678;9.280;2024-03-08T10:22:51;2.58;;;1.85;;
8708;SDS011;4391;48.678;9.280;2024-03-08T10:25:19;6.72;;;2.53;;
8708;SDS011;4391;48.678;9.280;2024-03-08T10:27:46;4.22;;;2.83;;
8708;SDS011;4391;48.678;9.280;2024-03-08T10:30:14;4.27;;;2.50;;
8708;SDS011;4391;48.678;9.280;2024-03-08T10:32:44;8.63;;;2.78;;
8708;SDS011;4391;48.678;9.280;2024-03-08T10:35:12;2.88;;;1.55;;
8708;SDS011;4391;48.678;9.280;2024-03-08T10:37:46;6.97;;;3.00;;
8708;SDS011;4391;48.678;9.280;2024-03-08T10:40:15;2.67;;;1.15;;
8708;SDS011;4391;48.678;9.280;2024-03-08T10:42:47;2.43;;;1.43;;
8708;SDS011;4391;48.678;9.280;2024-03-08T10:45:26;10.38;;;4.47;;
8708;SDS011;4391;48.678;9.280;2024-03-08T10:48:02;6.43;;;3.15;;
8708;SDS011;4391;48.678;9.280;2024-03-08T10:50:35;10.98;;;3.90;;
8708;SDS011;4391;48.678;9.280;2024-03-08T10:53:03;12.05;;;5.03;;
8708;SDS011;4391;48.678;9.280;2024-03-08T10:55:32;10.07;;;4.37;;
8708;SDS011;4391;48.678;9.280;2024-03-08T10:58:00;16.67;;;7.60;;
8708;SDS011;4391;48.678;9.280;2024-03-08T11:00:26;14.23;;;6.90;;
8708;SDS011;4391;48.678;9.280;2024-03-08T11:02:54;15.48;;;6.35;;
8708;SDS011;4391;48.678;9.280;2024-03-08T11:05:31;14.90;;;6.00;;
8708;SDS011;4391;48.678;9.280;2024-03-08T11:08:05;12.53;;;6.10;;
8708;SDS011;4391;48.678;9.280;2024-03-08T11:10:46;14.35;;;6.25;;
8708;SDS011;4391;48.678;9.280;2024-03-08T11:16:01;19.80;;;7.35;;
8708;SDS011;4391;48.678;9.280;2024-03-08T11:18:32;14.38;;;7.75;;
8708;SDS011;4391;48.678;9.280;2024-03-08T11:21:01;17.43;;;8.33;;
8708;SDS011;4391;48.678;9.280;2024-03-08T11:23:33;14.05;;;7.35;;
8708;SDS011;4391;48.678;9.280;2024-03-08T11:26:01;13.93;;;7.28;;
8708;SDS011;4391;48.678;9.280;2024-03-08T11:28:32;14.15;;;7.50;;
8708;SDS011;4391;48.678;9.280;2024-03-08T11:33:51;17.57;;;9.20;;
8708;SDS011;4391;48.678;9.280;2024-03-08T11:36:20;14.65;;;8.07;;
8708;SDS011;4391;48.678;9.280;2024-03-08T11:38:49;15.25;;;8.32;;
8708;SDS011;4391;48.678;9.280;2024-03-08T11:41:18;15.52;;;8.15;;
8708;SDS011;4391;48.678;9.280;2024-03-08T11:43:46;17.63;;;8.93;;
8708;SDS011;4391;48.678;9.280;2024-03-08T11:46:13;17.60;;;9.87;;
8708;SDS011;4391;48.678;9.280;2024-03-08T11:48:41;18.10;;;9.50;;
8708;SDS011;4391;48.678;9.280;2024-03-08T11:51:09;17.48;;;9.52;;
8708;SDS011;4391;48.678;9.280;2024-03-08T11:53:38;17.92;;;9.80;;
8708;SDS011;4391;48.678;9.280;2024-03-08T11:56:07;16.45;;;9.25;;
8708;SDS011;4391;48.678;9.280;2024-03-08T11:58:35;18.30;;;9.57;;
8708;SDS011;4391;48.678;9.280;2024-03-08T12:01:02;19.13;;;9.35;;
8708;SDS011;4391;48.678;9.280;2024-03-08T12:03:30;17.15;;;9.63;;
8708;SDS011;4391;48.678;9.280;2024-03-08T12:05:59;15.30;;;8.90;;
8708;SDS011;4391;48.678;9.280;2024-03-08T12:08:26;18.42;;;9.90;;
8708;SDS011;4391;48.678;9.280;2024-03-08T12:10:54;18.00;;;9.83;;
8708;SDS011;4391;48.678;9.280;2024-03-08T12:13:26;14.98;;;8.63;;
8708;SDS011;4391;48.678;9.280;2024-03-08T12:15:55;15.75;;;9.32;;
8708;SDS011;4391;48.678;9.280;2024-03-08T12:18:23;14.88;;;8.68;;
8708;SDS011;4391;48.678;9.280;2024-03-08T12:20:50;17.55;;;9.68;;
8708;SDS011;4391;48.678;9.280;2024-03-08T12:23:17;18.03;;;9.00;;
8708;SDS011;4391;48.678;9.280;2024-03-08T12:25:44;20.50;;;9.55;;
8708;SDS011;4391;48.678;9.280;2024-03-08T12:28:12;16.23;;;8.77;;
8708;SDS011;4391;48.678;9.280;2024-03-08T12:30:45;16.20;;;8.88;;
8708;SDS011;4391;48.678;9.280;2024-03-08T12:33:13;18.65;;;9.10;;
8708;SDS011;4391;48.678;9.280;2024-03-08T12:35:49;18.20;;;9.53;;
8708;SDS011;4391;48.678;9.280;2024-03-08T12:38:18;14.60;;;8.70;;
8708;SDS011;4391;48.678;9.280;2024-03-08T12:40:49;16.70;;;9.05;;
8708;SDS011;4391;48.678;9.280;2024-03-08T12:43:17;16.73;;;9.52;;
8708;SDS011;4391;48.678;9.280;2024-03-08T12:45:45;16.63;;;9.52;;
8708;SDS011;4391;48.678;9.280;2024-03-08T12:48:13;14.97;;;8.93;;
8708;SDS011;4391;48.678;9.280;2024-03-08T12:50:40;15.65;;;9.52;;
8708;SDS011;4391;48.678;9.280;2024-03-08T12:53:08;17.92;;;9.57;;
8708;SDS011;4391;48.678;9.280;2024-03-08T12:55:36;17.48;;;9.07;;
8708;SDS011;4391;48.678;9.280;2024-03-08T12:58:03;19.77;;;9.55;;
8708;SDS011;4391;48.678;9.280;2024-03-08T13:00:32;16.17;;;9.00;;
8708;SDS011;4391;48.678;9.280;2024-03-08T13:03:02;18.33;;;9.25;;
8708;SDS011;4391;48.678;9.280;2024-03-08T13:05:31;17.67;;;9.10;;
8708;SDS011;4391;48.678;9.280;2024-03-08T13:07:58;17.80;;;9.25;;
8708;SDS011;4391;48.678;9.280;2024-03-08T13:10:25;16.10;;;8.98;;
8708;SDS011;4391;48.678;9.280;2024-03-08T13:12:52;17.63;;;9.03;;
8708;SDS011;4391;48.678;9.280;2024-03-08T13:15:19;16.65;;;9.00;;
8708;SDS011;4391;48.678;9.280;2024-03-08T13:17:46;15.70;;;8.95;;
8708;SDS011;4391;48.678;9.280;2024-03-08T13:20:15;15.45;;;9.00;;
8708;SDS011;4391;48.678;9.280;2024-03-08T13:22:44;16.45;;;9.40;;
8708;SDS011;4391;48.678;9.280;2024-03-08T13:25:12;15.60;;;9.23;;
8708;SDS011;4391;48.678;9.280;2024-03-08T13:27:39;15.73;;;9.40;;
8708;SDS011;4391;48.678;9.280;2024-03-08T13:30:07;16.88;;;9.60;;
8708;SDS011;4391;48.678;9.280;2024-03-08T13:32:38;17.52;;;10.00;;
8708;SDS011;4391;48.678;9.280;2024-03-08T13:35:06;19.02;;;9.93;;
8708;SDS011;4391;48.678;9.280;2024-03-08T13:37:39;15.43;;;8.60;;
8708;SDS011;4391;48.678;9.280;2024-03-08T13:40:06;16.30;;;9.15;;
8708;SDS011;4391;48.678;9.280;2024-03-08T13:42:38;16.23;;;9.57;;
8708;SDS011;4391;48.678;9.280;2024-03-08T13:45:06;15.00;;;8.85;;
8708;SDS011;4391;48.678;9.280;2024-03-08T13:47:35;17.55;;;9.05;;
8708;SDS011;4391;48.678;9.280;2024-03-08T13:50:04;16.17;;;9.07;;
8708;SDS011;4391;48.678;9.280;2024-03-08T13:52:32;17.10;;;9.60;;
8708;SDS011;4391;48.678;9.280;2024-03-08T13:55:00;16.35;;;9.55;;
8708;SDS011;4391;48.678;9.280;2024-03-08T13:57:27;16.88;;;9.95;;
8708;SDS011;4391;48.678;9.280;2024-03-08T13:59:54;18.25;;;9.68;;
8708;SDS011;4391;48.678;9.280;2024-03-08T14:02:21;16.27;;;9.50;;
8708;SDS011;4391;48.678;9.280;2024-03-08T14:04:52;16.10;;;9.10;;
8708;SDS011;4391;48.678;9.280;2024-03-08T14:07:19;16.55;;;9.27;;
8708;SDS011;4391;48.678;9.280;2024-03-08T14:09:48;18.40;;;9.77;;
8708;SDS011;4391;48.678;9.280;2024-03-08T14:12:19;16.52;;;9.32;;
8708;SDS011;4391;48.678;9.280;2024-03-08T14:14:46;18.33;;;10.00;;
8708;SDS011;4391;48.678;9.280;2024-03-08T14:17:13;17.77;;;9.55;;
8708;SDS011;4391;48.678;9.280;2024-03-08T14:19:42;20.25;;;10.80;;
8708;SDS011;4391;48.678;9.280;2024-03-08T14:22:09;18.00;;;10.27;;
8708;SDS011;4391;48.678;9.280;2024-03-08T14:24:39;16.80;;;9.57;;
8708;SDS011;4391;48.678;9.280;2024-03-08T14:27:07;16.67;;;9.03;;
8708;SDS011;4391;48.678;9.280;2024-03-08T14:29:36;18.75;;;9.65;;
8708;SDS011;4391;48.678;9.280;2024-03-08T14:32:03;16.02;;;9.32;;
8708;SDS011;4391;48.678;9.280;2024-03-08T14:34:31;18.85;;;8.88;;
8708;SDS011;4391;48.678;9.280;2024-03-08T14:36:59;19.88;;;9.93;;
8708;SDS011;4391;48.678;9.280;2024-03-08T14:39:26;18.13;;;9.20;;
8708;SDS011;4391;48.678;9.280;2024-03-08T14:41:54;17.40;;;9.30;;
8708;SDS011;4391;48.678;9.280;2024-03-08T14:44:23;16.75;;;9.55;;
8708;SDS011;4391;48.678;9.280;2024-03-08T14:46:52;19.77;;;9.93;;
8708;SDS011;4391;48.678;9.280;2024-03-08T14:49:20;17.45;;;9.90;;
8708;SDS011;4391;48.678;9.280;2024-03-08T14:51:46;18.53;;;10.23;;
8708;SDS011;4391;48.678;9.280;2024-03-08T14:54:13;19.23;;;9.48;;
8708;SDS011;4391;48.678;9.280;2024-03-08T14:56:40;16.08;;;9.60;;
8708;SDS011;4391;48.678;9.280;2024-03-08T14:59:08;17.33;;;9.98;;
8708;SDS011;4391;48.678;9.280;2024-03-08T15:01:35;17.85;;;9.73;;
8708;SDS011;4391;48.678;9.280;2024-03-08T15:04:03;19.57;;;10.30;;
8708;SDS011;4391;48.678;9.280;2024-03-08T15:06:35;18.52;;;9.93;;
8708;SDS011;4391;48.678;9.280;2024-03-08T15:09:02;20.70;;;10.65;;
8708;SDS011;4391;48.678;9.280;2024-03-08T15:11:36;18.25;;;9.70;;